Time;durP1;ratioP1;P1;durP2;ratioP2;P2;SDS_P1;SDS_P2;PMS_P1;PMS_P2;Temp;Humidity;BMP_temperature;BMP_pressure;BME280_temperature;BME280_humidity;BME280_pressure;Samples;Min_cycle;Max_cycle;Signal;HPM_P1;HPM_P2
2023/06/24 00:01:25;;;;;;;8.98;7.80;;;;;;;23.76;93.51;98214.75;5075218;28;20176;-56
2023/06/24 00:03:53;;;;;;;11.13;8.23;;;;;;;23.39;96.28;98186.03;5074958;28;20169;-57
2023/06/24 00:06:22;;;;;;;10.02;7.82;;;;;;;23.28;99.73;98207.66;5075090;28;20212;-56
2023/06/24 00:08:48;;;;;;;11.80;9.05;;;;;;;23.20;99.53;98185.84;5074753;28;20254;-57
2023/06/24 00:11:14;;;;;;;9.15;8.25;;;;;;;23.15;100.00;98215.44;5075046;28;20172;-57
2023/06/24 00:13:41;;;;;;;9.20;8.20;;;;;;;23.01;100.00;98218.13;5074996;28;20180;-57
2023/06/24 00:16:06;;;;;;;9.85;8.85;;;;;;;23.05;100.00;98229.94;5074958;28;20259;-57
2023/06/24 00:18:33;;;;;;;9.35;8.02;;;;;;;23.20;100.00;98222.81;5074883;28;20255;-56
2023/06/24 00:20:58;;;;;;;9.07;8.27;;;;;;;23.20;100.00;98209.63;5074914;28;20237;-57
2023/06/24 00:23:26;;;;;;;9.23;8.32;;;;;;;23.14;100.00;98212.97;5074494;28;20188;-57
2023/06/24 00:25:54;;;;;;;9.55;8.13;;;;;;;23.08;100.00;98208.44;5074521;28;20519;-57
2023/06/24 00:28:19;;;;;;;9.52;8.50;;;;;;;23.05;100.00;98208.81;5074670;28;20234;-57
2023/06/24 00:30:45;;;;;;;12.18;9.20;;;;;;;22.98;100.00;98207.94;5078163;28;20215;-57
2023/06/24 00:33:13;;;;;;;10.98;8.73;;;;;;;22.88;100.00;98176.59;5094978;28;20168;-57
2023/06/24 00:35:39;;;;;;;9.85;8.88;;;;;;;22.91;100.00;98199.94;5094825;28;20180;-57
2023/06/24 00:38:04;;;;;;;9.88;8.88;;;;;;;22.83;100.00;98171.03;5094838;28;20544;-57
2023/06/24 00:40:30;;;;;;;13.32;9.52;;;;;;;23.01;100.00;98200.47;5094750;28;20172;-57
2023/06/24 00:42:55;;;;;;;8.50;7.80;;;;;;;23.07;100.00;98196.25;5094388;28;20188;-57
2023/06/24 00:45:22;;;;;;;8.68;7.80;;;;;;;23.00;100.00;98176.88;5094366;28;20602;-57
2023/06/24 00:47:48;;;;;;;8.70;7.85;;;;;;;23.12;98.98;98199.13;5094832;28;20206;-57
2023/06/24 00:50:15;;;;;;;9.35;8.45;;;;;;;23.07;98.94;98177.78;5094632;28;20529;-57
2023/06/24 00:52:42;;;;;;;9.13;8.20;;;;;;;23.06;100.00;98176.13;5094459;28;20613;-57
2023/06/24 00:55:12;;;;;;;9.10;8.20;;;;;;;22.85;100.00;98165.59;5094098;28;20179;-57
2023/06/24 00:57:40;;;;;;;10.70;8.82;;;;;;;23.01;100.00;98175.91;5094443;28;20172;-57
2023/06/24 01:00:13;;;;;;;10.05;8.85;;;;;;;22.99;100.00;98148.88;5031732;28;20281;-57
2023/06/24 01:02:38;;;;;;;10.38;9.40;;;;;;;23.04;100.00;98152.59;5031845;28;20212;-57
2023/06/24 01:05:06;;;;;;;9.85;8.82;;;;;;;23.13;100.00;98145.34;5031762;28;20672;-57
2023/06/24 01:07:31;;;;;;;9.75;8.85;;;;;;;23.16;100.00;98163.44;5031615;28;20205;-57
2023/06/24 01:09:57;;;;;;;9.50;8.57;;;;;;;23.20;100.00;98164.72;5031979;28;20403;-57
2023/06/24 01:12:23;;;;;;;13.32;8.63;;;;;;;23.26;100.00;98164.78;5031531;28;20178;-57
2023/06/24 01:14:49;;;;;;;9.77;8.85;;;;;;;23.24;100.00;98176.56;5031392;28;20201;-57
2023/06/24 01:17:19;;;;;;;9.45;8.38;;;;;;;23.14;100.00;98165.47;5031563;28;20628;-57
2023/06/24 01:19:56;;;;;;;9.32;8.35;;;;;;;23.16;100.00;98179.28;5031573;28;20240;-58
2023/06/24 01:22:30;;;;;;;9.98;8.05;;;;;;;23.23;100.00;98185.47;5031511;28;20189;-57
2023/06/24 01:25:19;;;;;;;12.75;8.68;;;;;;;23.18;100.00;98193.13;5031499;28;20361;-57
2023/06/24 01:28:17;;;;;;;9.90;8.50;;;;;;;23.02;100.00;98173.06;5031378;28;20200;-57
2023/06/24 01:31:01;;;;;;;9.50;8.50;;;;;;;23.15;100.00;98178.47;5052981;28;20192;-57
2023/06/24 01:33:36;;;;;;;9.13;8.23;;;;;;;23.02;100.00;98183.63;5093738;28;20180;-57
2023/06/24 01:36:03;;;;;;;8.93;8.13;;;;;;;;;;5093770;28;20160;-57
2023/06/24 01:38:36;;;;;;;11.35;8.30;;;;;;;22.72;100.00;98160.97;5093678;28;20188;-57
2023/06/24 01:41:04;;;;;;;10.07;8.85;;;;;;;22.83;100.00;98176.31;5093617;28;20164;-57
2023/06/24 01:43:32;;;;;;;11.95;9.18;;;;;;;22.69;100.00;98171.91;5093532;28;20201;-57
2023/06/24 01:45:58;;;;;;;10.70;8.98;;;;;;;22.89;100.00;98169.50;5093775;28;20255;-57
2023/06/24 01:48:28;;;;;;;9.68;8.77;;;;;;;22.80;100.00;98150.31;5093158;28;20249;-57
2023/06/24 01:51:14;;;;;;;10.32;8.93;;;;;;;22.80;100.00;98167.97;5093310;28;20233;-57
2023/06/24 01:53:44;;;;;;;9.15;8.25;;;;;;;22.67;100.00;98142.25;5093390;28;20282;-57
2023/06/24 01:56:13;;;;;;;9.50;8.48;;;;;;;22.82;100.00;98160.66;5050851;28;20185;-57
2023/06/24 01:58:41;;;;;;;9.77;8.80;;;;;;;22.75;100.00;98171.19;5050671;28;20193;-58
2023/06/24 02:01:07;;;;;;;10.90;8.38;;;;;;;22.74;100.00;98171.34;5050612;28;20270;-57
2023/06/24 02:03:34;;;;;;;9.45;8.38;;;;;;;22.62;100.00;98165.72;5050852;28;20173;-55
2023/06/24 02:06:01;;;;;;;10.02;9.02;;;;;;;22.30;100.00;98145.06;5050513;28;20268;-55
2023/06/24 02:08:32;;;;;;;11.02;8.88;;;;;;;22.38;100.00;98163.41;5049689;28;20702;-55
2023/06/24 02:10:59;;;;;;;9.88;8.98;;;;;;;22.43;100.00;98182.16;5050359;28;20566;-55
2023/06/24 02:13:25;;;;;;;10.05;8.70;;;;;;;22.42;100.00;98190.22;5050352;28;20181;-55
2023/06/24 02:15:53;;;;;;;15.73;8.80;;;;;;;22.44;100.00;98186.41;5050295;28;20616;-55
2023/06/24 02:18:21;;;;;;;10.88;9.18;;;;;;;22.20;100.00;98175.34;5050294;28;20215;-56
2023/06/24 02:20:49;;;;;;;10.00;8.95;;;;;;;22.28;100.00;98199.78;5050175;28;20217;-56
2023/06/24 02:23:15;;;;;;;10.02;9.00;;;;;;;22.07;100.00;98183.88;5050275;28;20181;-56
2023/06/24 02:25:42;;;;;;;11.13;8.88;;;;;;;21.95;100.00;98181.88;5050157;28;20177;-56
2023/06/24 02:28:09;;;;;;;10.55;8.38;;;;;;;22.10;100.00;98195.88;5089491;28;20692;-56
2023/06/24 02:30:36;;;;;;;10.35;9.32;;;;;;;21.75;100.00;98186.88;5092643;28;20171;-56
2023/06/24 02:33:02;;;;;;;10.90;9.38;;;;;;;21.96;100.00;98209.88;5092744;28;20171;-56
2023/06/24 02:35:27;;;;;;;9.90;8.95;;;;;;;21.77;100.00;98199.84;5092662;28;20167;-56
2023/06/24 02:37:52;;;;;;;9.63;8.80;;;;;;;21.88;100.00;98228.41;5092562;28;20180;-56
2023/06/24 02:40:18;;;;;;;10.25;8.77;;;;;;;21.92;100.00;98230.47;5092546;28;20176;-56
2023/06/24 02:42:43;;;;;;;9.60;8.73;;;;;;;21.88;100.00;98207.31;5092280;28;20638;-56
2023/06/24 02:45:09;;;;;;;11.50;9.25;;;;;;;21.71;100.00;98211.09;5092292;28;20180;-57
2023/06/24 02:47:36;;;;;;;9.65;8.75;;;;;;;21.77;100.00;98219.13;5092107;28;20199;-56
2023/06/24 02:50:05;;;;;;;9.77;8.73;;;;;;;21.71;100.00;98206.69;5069701;28;20642;-56
2023/06/24 02:52:30;;;;;;;9.18;8.27;;;;;;;21.91;100.00;98239.38;5069247;28;20185;-56
2023/06/24 02:54:58;;;;;;;11.35;9.30;;;;;;;21.92;100.00;98241.03;5069922;28;20214;-56
2023/06/24 02:57:25;;;;;;;10.98;9.00;;;;;;;21.78;100.00;98238.38;5069854;28;20226;-56
2023/06/24 02:59:51;;;;;;;9.48;8.55;;;;;;;21.62;100.00;98215.59;5069786;28;20188;-56
2023/06/24 03:02:16;;;;;;;10.23;9.23;;;;;;;21.84;100.00;98241.13;5029712;28;20190;-57
2023/06/24 03:04:42;;;;;;;10.20;9.20;;;;;;;21.87;100.00;98235.50;5029688;28;20198;-56
2023/06/24 03:07:11;;;;;;;9.95;8.82;;;;;;;22.00;100.00;98233.06;5029722;28;20585;-56
2023/06/24 03:09:36;;;;;;;10.60;9.57;;;;;;;22.17;100.00;98234.53;5029725;28;20543;-56
2023/06/24 03:12:02;;;;;;;10.32;9.35;;;;;;;22.28;100.00;98241.16;5029992;28;20290;-56
2023/06/24 03:14:28;;;;;;;14.02;9.60;;;;;;;22.35;100.00;98242.03;5029713;28;20181;-56
2023/06/24 03:16:53;;;;;;;11.20;9.00;;;;;;;22.44;100.00;98252.34;5029951;28;20197;-57
2023/06/24 03:19:19;;;;;;;9.57;8.50;;;;;;;22.19;100.00;98226.41;5031875;28;20186;-56
2023/06/24 03:21:44;;;;;;;10.38;9.27;;;;;;;22.27;100.00;98250.06;5033713;28;20682;-57
2023/06/24 03:24:10;;;;;;;10.25;8.90;;;;;;;22.30;100.00;98254.94;5033679;28;20189;-57
2023/06/24 03:26:38;;;;;;;9.80;8.82;;;;;;;22.39;100.00;98251.22;5033659;28;20224;-56
2023/06/24 03:29:03;;;;;;;9.93;8.23;;;;;;;22.43;100.00;98234.06;5033468;28;20220;-57
2023/06/24 03:31:30;;;;;;;9.63;8.63;;;;;;;22.38;100.00;98249.59;5033431;28;20193;-57
2023/06/24 03:33:55;;;;;;;11.00;9.00;;;;;;;22.46;100.00;98247.72;5082029;28;20267;-57
2023/06/24 03:36:21;;;;;;;11.77;9.10;;;;;;;22.55;100.00;98238.69;5095814;28;20316;-56
2023/06/24 03:38:47;;;;;;;9.55;8.65;;;;;;;22.51;100.00;98223.44;5095942;28;20184;-57
2023/06/24 03:41:12;;;;;;;9.25;8.35;;;;;;;22.64;100.00;98255.22;5095894;28;20179;-56
2023/06/24 03:43:37;;;;;;;10.35;8.63;;;;;;;22.59;100.00;98247.88;5095670;28;20634;-56
2023/06/24 03:46:03;;;;;;;9.38;8.52;;;;;;;22.72;100.00;98253.31;5095844;28;20618;-56
2023/06/24 03:48:28;;;;;;;10.23;8.50;;;;;;;22.87;100.00;98261.19;5095705;28;20195;-56
2023/06/24 03:50:54;;;;;;;9.82;8.90;;;;;;;22.81;100.00;98236.38;5095725;28;20175;-56
2023/06/24 03:53:19;;;;;;;10.82;9.13;;;;;;;22.99;100.00;98247.34;5052901;28;20216;-56
2023/06/24 03:55:44;;;;;;;9.95;8.98;;;;;;;23.21;100.00;98270.16;5052965;28;20177;-56
2023/06/24 03:58:10;;;;;;;9.55;8.65;;;;;;;23.20;100.00;98259.78;5052958;28;20201;-56
2023/06/24 04:00:40;;;;;;;9.32;8.35;;;;;;;23.28;98.51;98249.09;5032930;28;20193;-56
2023/06/24 04:03:07;;;;;;;12.95;8.70;;;;;;;23.23;99.03;98239.09;5032906;28;20248;-56
2023/06/24 04:05:33;;;;;;;8.80;8.00;;;;;;;23.34;97.48;98241.25;5032954;28;20722;-56
2023/06/24 04:07:58;;;;;;;9.95;9.00;;;;;;;23.31;96.04;98235.50;5032753;28;20218;-56
2023/06/24 04:10:24;;;;;;;9.18;8.27;;;;;;;23.39;95.09;98245.94;5032789;28;20244;-56
2023/06/24 04:12:49;;;;;;;9.32;8.40;;;;;;;23.49;93.66;98249.88;5032762;28;20198;-57
2023/06/24 04:15:15;;;;;;;9.32;8.35;;;;;;;23.42;94.14;98233.16;5032711;28;20185;-57
2023/06/24 04:17:40;;;;;;;9.73;8.80;;;;;;;23.31;94.44;98231.03;5032645;28;20193;-57
2023/06/24 04:20:09;;;;;;;11.35;8.32;;;;;;;23.37;94.40;98229.47;5032469;28;20655;-56
2023/06/24 04:22:39;;;;;;;9.77;8.02;;;;;;;23.35;94.12;98216.47;5032518;28;20769;-56
2023/06/24 04:25:08;;;;;;;9.75;8.73;;;;;;;23.44;93.93;98222.44;5032480;28;20181;-56
2023/06/24 04:27:34;;;;;;;15.27;8.65;;;;;;;23.59;94.09;98247.75;5032462;28;20213;-56
2023/06/24 04:30:00;;;;;;;10.23;9.00;;;;;;;23.60;95.30;98224.81;5031850;28;20252;-56
2023/06/24 04:32:26;;;;;;;21.08;10.38;;;;;;;23.91;94.68;98259.63;5085507;28;20591;-56
2023/06/24 04:34:51;;;;;;;13.50;9.27;;;;;;;23.95;94.37;98266.97;5094903;28;20171;-56
2023/06/24 04:37:17;;;;;;;13.00;10.05;;;;;;;24.02;92.83;98266.00;5094565;28;20183;-56
2023/06/24 04:39:43;;;;;;;22.48;9.38;;;;;;;23.98;91.81;98256.03;5094488;28;20246;-56
2023/06/24 04:42:10;;;;;;;12.10;8.75;;;;;;;24.00;91.49;98263.78;5094773;28;20172;-56
2023/06/24 04:44:36;;;;;;;12.90;9.23;;;;;;;24.13;91.15;98284.00;5071963;28;20742;-56
2023/06/24 04:47:02;;;;;;;14.98;8.85;;;;;;;24.07;89.39;98264.63;5072028;28;20195;-56
2023/06/24 04:49:28;;;;;;;10.70;9.35;;;;;;;24.19;88.53;98285.88;5071898;28;20212;-56
2023/06/24 04:51:53;;;;;;;14.27;9.27;;;;;;;24.17;89.15;98295.00;5031956;28;20680;-56
2023/06/24 04:54:18;;;;;;;11.82;9.10;;;;;;;24.14;89.93;98288.25;5031971;28;20339;-56
2023/06/24 04:56:45;;;;;;;10.95;9.68;;;;;;;24.15;89.97;98284.59;5031964;28;20193;-56
2023/06/24 04:59:10;;;;;;;11.75;8.85;;;;;;;24.24;88.44;98296.69;5031752;28;20612;-57
2023/06/24 05:01:36;;;;;;;9.73;8.75;;;;;;;24.36;87.36;98296.94;5031835;28;20186;-56
2023/06/24 05:04:01;;;;;;;11.43;8.80;;;;;;;24.41;86.60;98311.25;5031784;28;20193;-56
2023/06/24 05:06:27;;;;;;;11.23;8.68;;;;;;;24.47;86.95;98320.22;5031743;28;20272;-56
2023/06/24 05:08:52;;;;;;;10.40;9.27;;;;;;;24.47;87.58;98320.22;5031631;28;20201;-56
2023/06/24 05:11:18;;;;;;;11.95;9.85;;;;;;;24.43;87.20;98303.91;4992071;28;20191;-56
2023/06/24 05:13:43;;;;;;;11.70;10.13;;;;;;;24.54;86.49;98294.59;4992292;28;20232;-56
2023/06/24 05:16:08;;;;;;;13.80;9.95;;;;;;;24.72;86.33;98319.59;4972654;28;20274;-57
2023/06/24 05:18:34;;;;;;;13.35;10.60;;;;;;;24.60;86.20;98310.56;4972667;28;20210;-57
2023/06/24 05:20:59;;;;;;;13.48;9.80;;;;;;;24.55;86.46;98299.72;4972713;28;20219;-56
2023/06/24 05:23:25;;;;;;;14.40;10.32;;;;;;;24.69;86.80;98317.34;5000892;28;20240;-57
2023/06/24 05:25:50;;;;;;;10.48;8.82;;;;;;;24.56;86.38;98317.22;5011642;28;20257;-56
2023/06/24 05:28:15;;;;;;;20.33;10.00;;;;;;;24.35;88.71;98322.59;5011603;28;20230;-56
2023/06/24 05:30:41;;;;;;;13.07;9.57;;;;;;;24.23;89.40;98292.41;5011316;28;20210;-56
2023/06/24 05:33:06;;;;;;;11.48;9.80;;;;;;;24.24;89.18;98301.97;5011497;28;20170;-56
2023/06/24 05:35:33;;;;;;;16.92;11.68;;;;;;;24.36;88.99;98311.00;5011383;28;20187;-56
2023/06/24 05:37:58;;;;;;;14.40;10.88;;;;;;;24.54;88.84;98321.91;5011284;28;20190;-56
2023/06/24 05:40:23;;;;;;;11.45;10.25;;;;;;;24.53;87.53;98309.69;5011331;28;20174;-56
2023/06/24 05:42:49;;;;;;;12.30;10.40;;;;;;;24.52;88.01;98307.22;5044222;28;20302;-56
2023/06/24 05:45:14;;;;;;;17.02;9.85;;;;;;;24.79;88.01;98331.00;5050911;28;20695;-56
2023/06/24 05:47:41;;;;;;;12.43;9.95;;;;;;;24.71;87.56;98315.31;5050795;28;20652;-56
2023/06/24 05:50:07;;;;;;;11.93;9.18;;;;;;;24.70;88.93;98312.84;5050843;28;20188;-56
2023/06/24 05:52:32;;;;;;;10.50;9.40;;;;;;;24.74;88.02;98306.97;5050712;28;20561;-56
2023/06/24 05:54:58;;;;;;;10.93;9.70;;;;;;;24.82;86.35;98309.47;5050775;28;20177;-57
2023/06/24 05:57:23;;;;;;;12.07;9.85;;;;;;;24.88;87.08;98308.66;5010870;28;20194;-57
2023/06/24 05:59:48;;;;;;;11.70;10.23;;;;;;;25.11;86.00;98340.94;5011057;28;20732;-56
2023/06/24 06:02:14;;;;;;;14.18;10.43;;;;;;;25.17;85.40;98337.50;5011003;28;20273;-56
2023/06/24 06:04:47;;;;;;;10.60;9.48;;;;;;;25.25;85.26;98332.06;5069031;28;20565;-57
2023/06/24 06:07:12;;;;;;;11.95;10.65;;;;;;;25.40;84.22;98334.53;5069041;28;20180;-58
2023/06/24 06:09:38;;;;;;;14.05;10.65;;;;;;;25.37;83.93;98327.81;5069494;28;20702;-58
2023/06/24 06:12:04;;;;;;;11.93;10.13;;;;;;;25.51;84.11;98337.44;5069463;28;20234;-57
2023/06/24 06:14:29;;;;;;;11.57;10.40;;;;;;;25.62;83.03;98349.28;5069184;28;20176;-58
2023/06/24 06:16:55;;;;;;;11.88;10.65;;;;;;;25.66;82.67;98342.56;5066546;28;20184;-57
2023/06/24 06:19:20;;;;;;;14.88;11.25;;;;;;;25.55;82.93;98322.75;5066643;28;20188;-57
2023/06/24 06:21:45;;;;;;;11.68;10.45;;;;;;;25.61;82.61;98306.03;5066568;28;20295;-57
2023/06/24 06:24:11;;;;;;;11.90;10.60;;;;;;;25.75;82.36;98328.91;5066586;28;20282;-57
2023/06/24 06:26:44;;;;;;;14.82;10.48;;;;;;;25.85;81.41;98347.91;5066497;28;20189;-57
2023/06/24 06:29:10;;;;;;;14.98;10.98;;;;;;;25.78;81.84;98323.19;5066571;28;20234;-57
2023/06/24 06:31:36;;;;;;;11.98;10.73;;;;;;;25.90;82.34;98334.06;5066362;28;20188;-57
2023/06/24 06:34:01;;;;;;;11.25;10.13;;;;;;;25.97;81.83;98329.56;5066653;28;20199;-57
2023/06/24 06:36:27;;;;;;;12.38;11.15;;;;;;;26.01;81.45;98331.59;5066536;28;20219;-57
2023/06/24 06:38:52;;;;;;;14.45;11.75;;;;;;;25.96;81.30;98325.28;5066288;28;20249;-56
2023/06/24 06:41:24;;;;;;;13.25;11.80;;;;;;;26.06;81.78;98323.06;5065964;28;20184;-56
2023/06/24 06:43:50;;;;;;;14.07;12.05;;;;;;;26.06;81.32;98310.59;5045957;28;20295;-57
2023/06/24 06:46:15;;;;;;;16.75;11.75;;;;;;;26.11;81.20;98316.09;5046131;28;20738;-57
2023/06/24 06:48:40;;;;;;;14.63;11.30;;;;;;;26.07;82.25;98306.91;5062491;28;20662;-57
2023/06/24 06:51:06;;;;;;;16.15;11.95;;;;;;;26.08;81.17;98297.94;5065971;28;20185;-57
2023/06/24 06:53:31;;;;;;;17.38;11.80;;;;;;;26.26;80.64;98299.97;5065876;28;20281;-57
2023/06/24 06:55:58;;;;;;;12.68;11.40;;;;;;;26.35;80.80;98315.44;5065851;28;20710;-57
2023/06/24 06:58:24;;;;;;;13.98;12.52;;;;;;;26.31;80.94;98293.00;5065720;28;20227;-56
2023/06/24 07:00:50;;;;;;;16.48;12.38;;;;;;;26.34;81.19;98302.38;5066020;28;20273;-56
2023/06/24 07:03:15;;;;;;;15.38;12.90;;;;;;;26.36;80.63;98295.84;5065393;28;20228;-56
2023/06/24 07:05:41;;;;;;;18.10;12.80;;;;;;;26.49;80.70;98309.13;5065638;28;20216;-56
2023/06/24 07:08:06;;;;;;;15.35;12.73;;;;;;;26.45;80.57;98299.94;5045855;28;20646;-56
2023/06/24 07:10:32;;;;;;;14.75;13.25;;;;;;;26.68;80.44;98313.59;5045571;28;20268;-56
2023/06/24 07:12:57;;;;;;;13.05;11.75;;;;;;;26.69;80.08;98301.94;5030109;28;20186;-56
2023/06/24 07:15:24;;;;;;;13.73;12.13;;;;;;;26.70;80.34;98290.28;5046131;28;20674;-57
2023/06/24 07:17:50;;;;;;;14.85;13.25;;;;;;;26.94;79.56;98320.66;5052186;28;20655;-57
2023/06/24 07:20:15;;;;;;;15.25;13.00;;;;;;;26.97;78.77;98318.38;5052285;28;20242;-56
2023/06/24 07:22:40;;;;;;;16.02;13.15;;;;;;;27.02;79.10;98312.44;5051940;28;20226;-57
2023/06/24 07:25:06;;;;;;;17.67;13.55;;;;;;;26.99;78.84;98295.06;5071900;28;20185;-56
2023/06/24 07:27:31;;;;;;;14.93;13.52;;;;;;;27.16;77.31;98308.72;5072177;28;20193;-56
2023/06/24 07:29:57;;;;;;;15.02;13.23;;;;;;;27.12;77.19;98294.22;5071955;28;20191;-56
2023/06/24 07:32:22;;;;;;;15.55;13.35;;;;;;;27.10;77.10;98283.78;5071984;28;20179;-56
2023/06/24 07:34:48;;;;;;;17.38;13.73;;;;;;;27.14;77.33;98284.19;5071834;28;20682;-56
2023/06/24 07:37:13;;;;;;;16.23;13.80;;;;;;;27.34;76.62;98306.97;5071864;28;20172;-56
2023/06/24 07:39:39;;;;;;;16.42;13.98;;;;;;;27.29;77.65;98308.66;5086528;28;20717;-57
2023/06/24 07:42:04;;;;;;;16.75;14.95;;;;;;;27.12;76.99;98310.16;5092056;28;20175;-57
2023/06/24 07:44:30;;;;;;;19.02;14.65;;;;;;;26.97;78.22;98301.63;5091862;28;20215;-57
2023/06/24 07:46:55;;;;;;;18.30;13.93;;;;;;;26.96;78.71;98284.06;5091939;28;20179;-58
2023/06/24 07:49:20;;;;;;;17.40;14.30;;;;;;;27.15;79.22;98297.25;5091858;28;20621;-56
2023/06/24 07:51:46;;;;;;;22.08;15.15;;;;;;;27.02;77.96;98281.38;5091797;28;20184;-56
2023/06/24 07:54:11;;;;;;;17.40;14.07;;;;;;;27.18;77.93;98307.47;5091827;28;20225;-57
2023/06/24 07:56:37;;;;;;;18.65;13.98;;;;;;;27.12;78.41;98308.28;5063967;28;20655;-56
2023/06/24 07:59:03;;;;;;;16.20;14.60;;;;;;;27.15;78.39;98307.06;5053885;28;20220;-56
2023/06/24 08:01:28;;;;;;;21.27;14.35;;;;;;;27.02;78.61;98297.31;5053819;28;20192;-57
2023/06/24 08:03:53;;;;;;;16.65;14.10;;;;;;;26.97;79.43;98293.66;5053889;28;20247;-57
2023/06/24 08:06:20;;;;;;;17.20;13.18;;;;;;;27.18;79.46;98301.38;5053738;28;20173;-57
2023/06/24 08:08:46;;;;;;;17.02;14.57;;;;;;;27.17;78.92;98289.91;5053674;28;20189;-57
2023/06/24 08:11:12;;;;;;;15.48;13.88;;;;;;;27.39;78.68;98301.84;5053360;28;20639;-57
2023/06/24 08:13:38;;;;;;;16.42;14.52;;;;;;;27.58;77.66;98316.06;5053581;28;20181;-57
2023/06/24 08:16:03;;;;;;;26.00;15.68;;;;;;;27.55;76.74;98309.31;5053274;28;20662;-57
2023/06/24 08:18:29;;;;;;;15.88;14.05;;;;;;;27.55;76.34;98289.88;5053564;28;20177;-57
2023/06/24 08:20:54;;;;;;;16.17;14.30;;;;;;;27.71;75.40;98305.31;5053164;28;20173;-57
2023/06/24 08:23:20;;;;;;;15.35;13.85;;;;;;;27.92;75.47;98321.75;5053202;28;20219;-57
2023/06/24 08:25:45;;;;;;;20.88;15.43;;;;;;;27.88;74.35;98296.63;5052942;28;20558;-57
2023/06/24 08:28:11;;;;;;;15.65;14.05;;;;;;;28.05;73.30;98318.97;5052731;28;20185;-57
2023/06/24 08:30:36;;;;;;;16.40;14.38;;;;;;;28.00;73.20;98289.59;5053490;28;20174;-57
2023/06/24 08:33:01;;;;;;;21.20;14.35;;;;;;;28.09;72.92;98290.09;5053237;28;20177;-61
2023/06/24 08:35:27;;;;;;;23.38;14.98;;;;;;;28.25;72.09;98316.97;5052822;28;20658;-57
2023/06/24 08:37:52;;;;;;;17.92;15.50;;;;;;;28.30;72.23;98309.16;5070549;28;20184;-57
2023/06/24 08:40:18;;;;;;;17.95;15.13;;;;;;;28.43;71.30;98314.38;5070712;28;20185;-59
2023/06/24 08:42:44;;;;;;;22.05;16.00;;;;;;;28.30;71.11;98287.88;5070509;28;20223;-58
2023/06/24 08:45:09;;;;;;;32.17;22.52;;;;;;;28.24;71.55;98314.53;5070574;28;20677;-67
2023/06/24 08:47:35;;;;;;;33.53;25.88;;;;;;;28.22;72.12;98308.63;5070385;28;20192;-59
2023/06/24 08:50:13;;;;;;;22.67;18.63;;;;;;;28.12;71.71;98290.50;5070455;28;20215;-57
2023/06/24 08:52:44;;;;;;;18.55;14.63;;;;;;;28.41;71.73;98310.31;5070440;28;20219;-57
2023/06/24 08:55:13;;;;;;;23.00;15.70;;;;;;;28.38;71.94;98295.59;5070465;28;20191;-57
2023/06/24 08:57:39;;;;;;;25.50;17.15;;;;;;;28.33;70.48;98308.72;5070368;28;20193;-57
2023/06/24 09:00:09;;;;;;;23.02;19.00;;;;;;;28.30;71.61;98317.16;5070359;28;20226;-57
2023/06/24 09:02:37;;;;;;;21.52;17.67;;;;;;;28.34;71.78;98320.97;5065662;28;20276;-57
2023/06/24 09:05:07;;;;;;;16.55;14.63;;;;;;;28.21;70.92;98307.78;5070266;28;20180;-57
2023/06/24 09:07:33;;;;;;;15.25;13.63;;;;;;;28.38;70.77;98316.88;5070125;28;20192;-58
2023/06/24 09:10:00;;;;;;;20.30;14.52;;;;;;;28.40;70.58;98298.84;5010581;28;20193;-58
2023/06/24 09:12:26;;;;;;;13.98;12.68;;;;;;;28.66;70.57;98322.53;5010419;28;20195;-58
2023/06/24 09:14:52;;;;;;;18.77;13.38;;;;;;;28.83;69.42;98323.56;5004176;28;20206;-58
2023/06/24 09:17:21;;;;;;;19.13;13.18;;;;;;;28.92;67.75;98322.22;4990689;28;20678;-57
2023/06/24 09:19:47;;;;;;;15.77;13.35;;;;;;;29.02;66.82;98319.06;5010264;28;20198;-56
2023/06/24 09:22:17;;;;;;;15.48;13.30;;;;;;;28.98;67.22;98301.91;5010341;28;20187;-56
2023/06/24 09:24:46;;;;;;;15.40;13.43;;;;;;;29.04;65.85;98290.38;5010165;28;20284;-56
2023/06/24 09:27:15;;;;;;;14.23;12.77;;;;;;;29.25;65.59;98314.66;5010156;28;20194;-57
2023/06/24 09:29:43;;;;;;;14.82;13.27;;;;;;;29.02;66.06;98292.41;5010150;28;20190;-57
2023/06/24 09:32:09;;;;;;;15.40;12.90;;;;;;;29.09;66.77;98304.63;5010065;28;20343;-57
2023/06/24 09:34:35;;;;;;;16.10;13.07;;;;;;;29.04;65.77;98288.50;5009821;28;20198;-57
2023/06/24 09:37:01;;;;;;;15.02;12.52;;;;;;;29.26;64.58;98304.84;5007246;28;20693;-57
2023/06/24 09:39:31;;;;;;;15.07;13.10;;;;;;;29.26;65.31;98300.31;5009840;28;20265;-57
2023/06/24 09:41:57;;;;;;;13.35;11.77;;;;;;;29.39;63.52;98297.44;5064203;28;20184;-57
2023/06/24 09:44:22;;;;;;;13.07;11.80;;;;;;;29.43;63.79;98273.84;5069587;28;20268;-57
2023/06/24 09:46:48;;;;;;;16.88;11.98;;;;;;;29.62;63.38;98294.88;5069584;28;20193;-57
2023/06/24 09:49:14;;;;;;;14.55;12.38;;;;;;;29.64;63.49;98265.31;5053841;28;20189;-57
2023/06/24 09:51:46;;;;;;;13.45;12.15;;;;;;;29.85;61.93;98272.78;5051998;28;20173;-57
2023/06/24 09:54:13;;;;;;;14.82;11.73;;;;;;;29.98;60.70;98265.38;5052009;28;20207;-58
2023/06/24 09:56:49;;;;;;;13.52;11.32;;;;;;;29.80;63.81;98254.78;5051874;28;20177;-57
2023/06/24 09:59:17;;;;;;;15.13;12.55;;;;;;;29.86;62.17;98251.19;5051857;28;20188;-57
2023/06/24 10:01:44;;;;;;;13.07;11.77;;;;;;;29.74;63.33;98234.34;5051527;28;20180;-56
2023/06/24 10:04:15;;;;;;;13.77;12.15;;;;;;;29.86;63.30;98227.16;5051812;28;20211;-57
2023/06/24 10:06:41;;;;;;;13.50;12.07;;;;;;;30.05;62.93;98239.38;5051588;28;20239;-57
2023/06/24 10:09:06;;;;;;;13.43;11.70;;;;;;;30.25;63.26;98250.53;5051848;28;20170;-57
2023/06/24 10:11:32;;;;;;;13.77;12.07;;;;;;;30.29;61.97;98249.03;5029252;28;20194;-57
2023/06/24 10:13:57;;;;;;;12.43;11.13;;;;;;;30.35;62.84;98216.06;5029401;28;20691;-56
2023/06/24 10:16:23;;;;;;;12.98;11.43;;;;;;;30.51;62.66;98238.53;5029341;28;20194;-57
2023/06/24 10:18:49;;;;;;;17.05;11.45;;;;;;;30.40;61.31;98215.34;5029164;28;20181;-57
2023/06/24 10:21:15;;;;;;;12.57;11.30;;;;;;;30.56;61.39;98234.13;5029335;28;20281;-57
2023/06/24 10:23:50;;;;;;;13.80;12.38;;;;;;;30.63;62.58;98229.47;5029262;28;20695;-56
2023/06/24 10:26:25;;;;;;;15.23;12.75;;;;;;;30.53;60.98;98212.41;5029450;28;20178;-56
2023/06/24 10:29:05;;;;;;;12.80;11.60;;;;;;;30.61;60.55;98193.34;5029213;28;20284;-56
2023/06/24 10:31:39;;;;;;;11.48;10.40;;;;;;;30.82;59.43;98220.25;5029287;28;20193;-56
2023/06/24 10:34:23;;;;;;;11.88;10.75;;;;;;;30.75;60.20;98221.44;5029187;28;20193;-56
2023/06/24 10:37:08;;;;;;;13.32;11.32;;;;;;;30.63;60.70;98208.09;5029160;28;20219;-56
2023/06/24 10:39:40;;;;;;;10.50;9.50;;;;;;;30.91;59.90;98221.50;5029113;28;20185;-57
2023/06/24 10:42:43;;;;;;;11.77;10.75;;;;;;;31.10;60.13;98212.25;5048759;28;20652;-57
2023/06/24 10:45:11;;;;;;;16.83;10.50;;;;;;;31.16;60.15;98213.13;5048854;28;20212;-57
2023/06/24 10:47:41;;;;;;;12.30;10.10;;;;;;;31.36;58.99;98214.31;5048982;28;20177;-57
2023/06/24 10:50:08;;;;;;;11.75;10.65;;;;;;;31.62;58.05;98196.84;5069596;28;20204;-57
2023/06/24 10:52:41;;;;;;;11.93;10.60;;;;;;;31.59;57.98;98184.75;5072678;28;20191;-57
2023/06/24 10:55:07;;;;;;;10.93;9.95;;;;;;;32.02;56.72;98198.31;5072784;28;20187;-57
2023/06/24 10:57:33;;;;;;;10.35;9.55;;;;;;;32.17;54.84;98176.28;5052424;28;20666;-57
2023/06/24 10:59:58;;;;;;;11.20;9.88;;;;;;;32.23;55.20;98168.03;5032508;28;20266;-57
2023/06/24 11:02:26;;;;;;;11.02;9.68;;;;;;;32.43;55.53;98197.00;5032475;28;20273;-57
2023/06/24 11:05:00;;;;;;;10.80;9.68;;;;;;;32.30;54.01;98182.09;5032549;28;20296;-57
2023/06/24 11:07:31;;;;;;;10.35;9.25;;;;;;;32.10;54.97;98163.06;5032594;28;20676;-57
2023/06/24 11:10:01;;;;;;;11.88;9.73;;;;;;;32.32;54.66;98166.59;5032514;28;20197;-57
2023/06/24 11:12:35;;;;;;;10.40;9.48;;;;;;;32.48;53.07;98171.09;5032432;28;20186;-57
2023/06/24 11:15:05;;;;;;;11.15;9.95;;;;;;;32.60;53.50;98162.91;5032388;28;20224;-58
2023/06/24 11:17:32;;;;;;;9.55;8.75;;;;;;;32.78;52.58;98150.03;5032396;28;20185;-57
2023/06/24 11:19:58;;;;;;;11.00;9.48;;;;;;;32.91;52.31;98154.97;5032339;28;20735;-57
2023/06/24 11:22:24;;;;;;;9.35;8.35;;;;;;;32.83;50.42;98134.00;5032101;28;20357;-57